»·PEaware :: N72DM KSNA-KVCV

N72DM :: KSNA-KVCV

FLIGHT INFORMATION

Flight Status: Arrived
Operator: Privately registered:
United States
More flights under this callsign
Pilot: Roman S. (31940)
Aircraft: PIPER PA-28 CHEROKEE ARCHER
(PA28)
More flights by this aircraft type
Origin: KSNA John Wayne-Orange Co
United States
Destination: KVCV Socal Logistics
United States
More flights between these airports :: More routes between these airports
Route: +
File this flight plan on PilotEdge
Remarks:
Altitude:
(Current/Filed)
0ft
Speed:
(Current/Filed)
0kts
Departed: 16-Oct-20 08:19 PM
Arrived: 16-Oct-20 08:59 PM
Distance/Time
Traveled:
60nm/0:40
Distance/Time
To Go:
Arrived

Flight Plot

Page will automatically refresh every two minutes.


Map Options




Map Legend


Flown Route
Filed Route
Departure Airport
Arrival Airport
Navaid (VOR, NDB)
Fix

Horizontal Profiles

Position Reports

Time Latitude Longitude Heading Altitude Ground
Speed
16-Oct-20 20:06 33.676268 -117.870964 183 51ft 0kts
16-Oct-20 20:07 33.676268 -117.870964 183 51ft 0kts
16-Oct-20 20:08 33.675785 -117.871233 134 51ft 0kts
16-Oct-20 20:09 33.675785 -117.871233 134 51ft 0kts
16-Oct-20 20:10 33.675785 -117.871233 134 51ft 0kts
16-Oct-20 20:11 33.675693 -117.871036 125 51ft 0kts
16-Oct-20 20:12 33.675693 -117.871036 125 51ft 0kts
16-Oct-20 20:13 33.677318 -117.868811 228 51ft 0kts
16-Oct-20 20:14 33.677318 -117.868811 228 51ft 0kts
16-Oct-20 20:15 33.681226 -117.866885 70 43ft 24kts
16-Oct-20 20:16 33.681150 -117.866436 124 42ft 0kts
16-Oct-20 20:17 33.681150 -117.866436 124 42ft 0kts
16-Oct-20 20:18 33.678728 -117.866951 206 49ft 47kts
16-Oct-20 20:19 33.664446 -117.880657 255 761ft 64kts
16-Oct-20 20:20 33.677778 -117.894151 340 1500ft 71kts
16-Oct-20 20:21 33.696651 -117.906624 321 2123ft 83kts
16-Oct-20 20:22 33.717933 -117.923917 327 2337ft 100kts
16-Oct-20 20:23 33.744063 -117.938095 338 2445ft 103kts
16-Oct-20 20:24 33.770553 -117.941538 14 2908ft 88kts
16-Oct-20 20:25 33.789346 -117.924225 49 3520ft 86kts
16-Oct-20 20:26 33.806647 -117.903924 50 4094ft 87kts
16-Oct-20 20:27 33.818939 -117.878424 63 4633ft 88kts
16-Oct-20 20:28 33.832090 -117.853106 57 5141ft 90kts
16-Oct-20 20:29 33.844575 -117.827054 59 5630ft 90kts
16-Oct-20 20:30 33.855911 -117.799924 64 6087ft 91kts
16-Oct-20 20:31 33.869401 -117.773941 55 6512ft 92kts
16-Oct-20 20:32 33.885710 -117.750388 38 6924ft 91kts
16-Oct-20 20:33 33.905436 -117.730612 40 7310ft 92kts
16-Oct-20 20:34 34.089758 -117.650719 23 5500ft 104kts
16-Oct-20 20:35 34.095515 -117.647518 23 5613ft 101kts
16-Oct-20 20:36 34.108295 -117.619890 65 5986ft 96kts
16-Oct-20 20:37 34.119241 -117.590160 63 6312ft 97kts
16-Oct-20 20:38 34.125774 -117.559945 56 6667ft 97kts
16-Oct-20 20:40 34.142531 -117.535702 46 7041ft 96kts
16-Oct-20 20:41 34.164134 -117.517581 34 7393ft 95kts
16-Oct-20 20:42 34.189046 -117.503845 13 7513ft 104kts
16-Oct-20 20:43 34.216994 -117.496513 8 7624ft 104kts
16-Oct-20 20:44 34.247111 -117.488946 11 7434ft 108kts
16-Oct-20 20:45 34.275964 -117.480022 3 7412ft 107kts
16-Oct-20 20:46 34.303883 -117.478854 18 7617ft 101kts
16-Oct-20 20:47 34.329018 -117.459986 37 7538ft 109kts
16-Oct-20 20:48 34.352548 -117.436941 37 7479ft 108kts
16-Oct-20 20:49 34.377202 -117.415851 30 7475ft 104kts
16-Oct-20 20:50 34.403250 -117.400003 25 7529ft 105kts
16-Oct-20 20:51 34.428001 -117.380865 34 7529ft 107kts
16-Oct-20 20:52 34.453531 -117.360989 20 7430ft 109kts
16-Oct-20 20:53 34.483255 -117.364377 343 7235ft 110kts
16-Oct-20 20:54 34.513610 -117.371006 354 6855ft 111kts
16-Oct-20 20:55 34.546362 -117.375367 357 6001ft 120kts
16-Oct-20 20:56 34.578221 -117.372331 10 4017ft 111kts
16-Oct-20 20:57 34.593497 -117.348598 58 3671ft 84kts
16-Oct-20 20:57 34.604017 -117.353872 273 3354ft 63kts
16-Oct-20 20:59 34.597431 -117.370295 218 2858ft 36kts
16-Oct-20 20:59 34.593647 -117.372747 181 2859ft 0kts

Navigation Log

Ident Type
Flight plan parsing failed, navigation log unavailable